sensor_id;sensor_type;location;lat;lon;timestamp;pressure;altitude;pressure_sealevel;temperature;humidity
5651;BME280;40241;52.684;9.758;2023-01-30T00:00:34;101059.94;;;6.16;64.97
5651;BME280;40241;52.684;9.758;2023-01-30T00:03:00;101084.66;;;6.21;65.00
5651;BME280;40241;52.684;9.758;2023-01-30T00:05:26;101051.88;;;6.21;64.75
5651;BME280;40241;52.684;9.758;2023-01-30T00:07:51;101039.00;;;6.22;65.02
5651;BME280;40241;52.684;9.758;2023-01-30T00:10:17;101052.66;;;6.22;65.00
5651;BME280;40241;52.684;9.758;2023-01-30T00:12:42;101056.44;;;6.24;64.76
5651;BME280;40241;52.684;9.758;2023-01-30T00:15:08;101064.50;;;6.28;64.86
5651;BME280;40241;52.684;9.758;2023-01-30T00:17:33;101067.06;;;6.31;64.78
5651;BME280;40241;52.684;9.758;2023-01-30T00:19:59;101085.75;;;6.33;64.95
5651;BME280;40241;52.684;9.758;2023-01-30T00:22:24;101086.06;;;6.35;64.79
5651;BME280;40241;52.684;9.758;2023-01-30T00:24:50;101099.28;;;6.36;64.63
5651;BME280;40241;52.684;9.758;2023-01-30T00:27:15;101097.16;;;6.40;64.92
5651;BME280;40241;52.684;9.758;2023-01-30T00:29:41;101104.16;;;6.41;64.79
5651;BME280;40241;52.684;9.758;2023-01-30T00:32:06;101094.00;;;6.42;64.74
5651;BME280;40241;52.684;9.758;2023-01-30T00:34:31;101065.13;;;6.41;64.67
5651;BME280;40241;52.684;9.758;2023-01-30T00:36:57;101042.38;;;6.44;64.74
5651;BME280;40241;52.684;9.758;2023-01-30T00:39:22;101055.72;;;6.42;64.81
5651;BME280;40241;52.684;9.758;2023-01-30T00:41:47;101040.53;;;6.41;65.28
5651;BME280;40241;52.684;9.758;2023-01-30T00:44:31;101012.28;;;6.35;65.18
5651;BME280;40241;52.684;9.758;2023-01-30T00:47:16;101006.84;;;6.35;65.38
5651;BME280;40241;52.684;9.758;2023-01-30T00:49:41;101002.75;;;6.39;65.41
5651;BME280;40241;52.684;9.758;2023-01-30T00:52:06;101007.44;;;6.39;65.55
5651;BME280;40241;52.684;9.758;2023-01-30T00:54:32;100997.28;;;6.39;65.43
5651;BME280;40241;52.684;9.758;2023-01-30T00:56:58;100992.13;;;6.41;65.39
5651;BME280;40241;52.684;9.758;2023-01-30T00:59:23;100996.50;;;6.39;65.57
5651;BME280;40241;52.684;9.758;2023-01-30T01:01:48;100980.72;;;6.43;65.59
5651;BME280;40241;52.684;9.758;2023-01-30T01:04:14;100963.25;;;6.40;65.42
5651;BME280;40241;52.684;9.758;2023-01-30T01:06:39;100950.34;;;6.41;65.77
5651;BME280;40241;52.684;9.758;2023-01-30T01:09:05;100967.97;;;6.40;65.56
5651;BME280;40241;52.684;9.758;2023-01-30T01:11:31;100930.03;;;6.42;65.82
5651;BME280;40241;52.684;9.758;2023-01-30T01:13:58;100933.19;;;6.40;65.57
5651;BME280;40241;52.684;9.758;2023-01-30T01:16:26;100920.59;;;6.43;65.63
5651;BME280;40241;52.684;9.758;2023-01-30T01:18:52;100911.97;;;6.44;65.51
5651;BME280;40241;52.684;9.758;2023-01-30T01:21:18;100911.34;;;6.40;65.89
5651;BME280;40241;52.684;9.758;2023-01-30T01:23:51;100905.44;;;6.42;66.06
5651;BME280;40241;52.684;9.758;2023-01-30T01:26:17;100893.44;;;6.39;65.84
5651;BME280;40241;52.684;9.758;2023-01-30T01:28:43;100888.75;;;6.40;65.98
5651;BME280;40241;52.684;9.758;2023-01-30T01:31:13;100895.72;;;6.41;66.07
5651;BME280;40241;52.684;9.758;2023-01-30T01:33:39;100896.59;;;6.38;66.14
5651;BME280;40241;52.684;9.758;2023-01-30T01:36:05;100887.38;;;6.44;65.93
5651;BME280;40241;52.684;9.758;2023-01-30T01:38:31;100892.50;;;6.42;66.13
5651;BME280;40241;52.684;9.758;2023-01-30T01:40:57;100855.00;;;6.43;66.38
5651;BME280;40241;52.684;9.758;2023-01-30T01:43:58;100847.13;;;6.45;66.53
5651;BME280;40241;52.684;9.758;2023-01-30T01:49:27;100833.31;;;6.48;66.92
5651;BME280;40241;52.684;9.758;2023-01-30T01:51:59;100841.34;;;6.52;66.49
5651;BME280;40241;52.684;9.758;2023-01-30T01:56:56;100853.03;;;6.52;66.33
5651;BME280;40241;52.684;9.758;2023-01-30T01:59:30;100855.16;;;6.57;66.23
5651;BME280;40241;52.684;9.758;2023-01-30T02:02:00;100847.25;;;6.59;66.26
5651;BME280;40241;52.684;9.758;2023-01-30T02:04:29;100843.75;;;6.59;66.53
5651;BME280;40241;52.684;9.758;2023-01-30T02:07:16;100836.75;;;6.58;66.69
5651;BME280;40241;52.684;9.758;2023-01-30T02:09:43;100831.88;;;6.62;66.56
5651;BME280;40241;52.684;9.758;2023-01-30T02:12:09;100820.81;;;6.65;66.34
5651;BME280;40241;52.684;9.758;2023-01-30T02:14:36;100812.91;;;6.67;66.33
5651;BME280;40241;52.684;9.758;2023-01-30T02:17:01;100810.94;;;6.68;66.46
5651;BME280;40241;52.684;9.758;2023-01-30T02:23:02;100793.59;;;6.71;67.41
5651;BME280;40241;52.684;9.758;2023-01-30T02:25:58;100788.88;;;6.71;67.19
5651;BME280;40241;52.684;9.758;2023-01-30T02:28:51;100797.53;;;6.79;67.01
5651;BME280;40241;52.684;9.758;2023-01-30T02:31:34;100788.38;;;6.82;66.80
5651;BME280;40241;52.684;9.758;2023-01-30T02:42:53;100750.53;;;6.90;67.33
5651;BME280;40241;52.684;9.758;2023-01-30T02:46:24;100754.13;;;6.96;66.73
5651;BME280;40241;52.684;9.758;2023-01-30T02:48:52;100739.69;;;6.95;67.94
5651;BME280;40241;52.684;9.758;2023-01-30T02:51:23;100725.25;;;6.95;67.07
5651;BME280;40241;52.684;9.758;2023-01-30T02:53:50;100735.56;;;7.00;67.05
5651;BME280;40241;52.684;9.758;2023-01-30T02:56:16;100768.84;;;6.98;67.07
5651;BME280;40241;52.684;9.758;2023-01-30T02:58:51;100727.31;;;7.09;66.94
5651;BME280;40241;52.684;9.758;2023-01-30T03:15:33;100706.69;;;7.22;67.15
5651;BME280;40241;52.684;9.758;2023-01-30T03:18:00;100684.34;;;7.24;67.96
5651;BME280;40241;52.684;9.758;2023-01-30T03:20:26;100683.28;;;7.21;67.37
5651;BME280;40241;52.684;9.758;2023-01-30T03:22:53;100693.31;;;7.24;67.25
5651;BME280;40241;52.684;9.758;2023-01-30T03:25:21;100684.63;;;7.26;67.46
5651;BME280;40241;52.684;9.758;2023-01-30T03:27:49;100681.72;;;7.29;67.34
5651;BME280;40241;52.684;9.758;2023-01-30T03:30:16;100676.53;;;7.31;67.58
5651;BME280;40241;52.684;9.758;2023-01-30T03:32:41;100679.56;;;7.33;67.57
5651;BME280;40241;52.684;9.758;2023-01-30T03:35:07;100674.81;;;7.34;67.62
5651;BME280;40241;52.684;9.758;2023-01-30T03:37:33;100662.19;;;7.36;67.48
5651;BME280;40241;52.684;9.758;2023-01-30T03:39:59;100665.97;;;7.39;67.62
5651;BME280;40241;52.684;9.758;2023-01-30T03:42:24;100641.06;;;7.37;67.55
5651;BME280;40241;52.684;9.758;2023-01-30T03:44:49;100666.72;;;7.39;67.74
5651;BME280;40241;52.684;9.758;2023-01-30T03:47:15;100651.06;;;7.40;67.76
5651;BME280;40241;52.684;9.758;2023-01-30T03:49:40;100649.38;;;7.42;67.63
5651;BME280;40241;52.684;9.758;2023-01-30T03:52:05;100647.94;;;7.47;67.57
5651;BME280;40241;52.684;9.758;2023-01-30T03:54:31;100640.78;;;7.49;67.55
5651;BME280;40241;52.684;9.758;2023-01-30T03:56:56;100645.50;;;7.49;67.53
5651;BME280;40241;52.684;9.758;2023-01-30T03:59:21;100622.84;;;7.48;68.17
5651;BME280;40241;52.684;9.758;2023-01-30T04:01:47;100628.03;;;7.46;67.78
5651;BME280;40241;52.684;9.758;2023-01-30T04:04:12;100612.19;;;7.50;67.84
5651;BME280;40241;52.684;9.758;2023-01-30T04:06:37;100627.47;;;7.57;67.88
5651;BME280;40241;52.684;9.758;2023-01-30T04:09:03;100618.03;;;7.58;67.93
5651;BME280;40241;52.684;9.758;2023-01-30T04:11:28;100615.41;;;7.64;67.84
5651;BME280;40241;52.684;9.758;2023-01-30T04:13:53;100617.66;;;7.65;68.11
5651;BME280;40241;52.684;9.758;2023-01-30T04:16:21;100600.19;;;7.63;68.07
5651;BME280;40241;52.684;9.758;2023-01-30T04:18:47;100603.78;;;7.69;68.14
5651;BME280;40241;52.684;9.758;2023-01-30T04:21:12;100609.53;;;7.71;67.69
5651;BME280;40241;52.684;9.758;2023-01-30T04:23:38;100602.66;;;7.75;67.63
5651;BME280;40241;52.684;9.758;2023-01-30T04:26:04;100601.69;;;7.78;67.85
5651;BME280;40241;52.684;9.758;2023-01-30T04:28:30;100603.66;;;7.78;67.68
5651;BME280;40241;52.684;9.758;2023-01-30T04:30:56;100619.63;;;7.79;68.13
5651;BME280;40241;52.684;9.758;2023-01-30T04:33:21;100600.09;;;7.72;68.13
5651;BME280;40241;52.684;9.758;2023-01-30T04:35:51;100608.00;;;7.84;67.92
5651;BME280;40241;52.684;9.758;2023-01-30T04:38:17;100596.78;;;7.82;68.25
5651;BME280;40241;52.684;9.758;2023-01-30T04:40:50;100612.75;;;7.84;68.18
5651;BME280;40241;52.684;9.758;2023-01-30T04:43:16;100588.94;;;7.90;68.07
5651;BME280;40241;52.684;9.758;2023-01-30T04:45:42;100598.38;;;7.89;67.89
5651;BME280;40241;52.684;9.758;2023-01-30T04:48:08;100579.94;;;7.89;68.09
5651;BME280;40241;52.684;9.758;2023-01-30T04:50:33;100586.19;;;7.90;68.43
5651;BME280;40241;52.684;9.758;2023-01-30T04:52:59;100577.03;;;7.93;68.33
5651;BME280;40241;52.684;9.758;2023-01-30T04:55:24;100569.38;;;7.97;68.27
5651;BME280;40241;52.684;9.758;2023-01-30T04:57:49;100564.84;;;7.94;68.34
5651;BME280;40241;52.684;9.758;2023-01-30T05:00:15;100580.13;;;8.00;68.41
5651;BME280;40241;52.684;9.758;2023-01-30T05:02:40;100579.91;;;8.04;68.34
5651;BME280;40241;52.684;9.758;2023-01-30T05:05:06;100559.78;;;8.07;68.17
5651;BME280;40241;52.684;9.758;2023-01-30T05:07:31;100557.88;;;8.13;68.18
5651;BME280;40241;52.684;9.758;2023-01-30T05:09:57;100566.38;;;8.15;68.19
5651;BME280;40241;52.684;9.758;2023-01-30T05:12:22;100565.91;;;8.16;68.20
5651;BME280;40241;52.684;9.758;2023-01-30T05:14:47;100577.91;;;8.19;68.33
5651;BME280;40241;52.684;9.758;2023-01-30T05:17:13;100559.00;;;8.21;68.68
5651;BME280;40241;52.684;9.758;2023-01-30T05:19:38;100551.06;;;8.23;68.30
5651;BME280;40241;52.684;9.758;2023-01-30T05:22:03;100545.38;;;8.26;68.55
5651;BME280;40241;52.684;9.758;2023-01-30T05:24:29;100573.56;;;8.27;68.49
5651;BME280;40241;52.684;9.758;2023-01-30T05:26:54;100510.22;;;8.25;68.31
5651;BME280;40241;52.684;9.758;2023-01-30T05:29:19;100541.22;;;8.31;68.75
5651;BME280;40241;52.684;9.758;2023-01-30T05:31:45;100522.84;;;8.37;68.73
5651;BME280;40241;52.684;9.758;2023-01-30T05:34:11;100528.16;;;8.41;68.62
5651;BME280;40241;52.684;9.758;2023-01-30T05:36:36;100526.72;;;8.45;68.33
5651;BME280;40241;52.684;9.758;2023-01-30T05:39:02;100523.97;;;8.45;68.68
5651;BME280;40241;52.684;9.758;2023-01-30T05:41:27;100540.88;;;8.44;68.70
5651;BME280;40241;52.684;9.758;2023-01-30T05:43:52;100531.28;;;8.54;68.60
5651;BME280;40241;52.684;9.758;2023-01-30T05:46:18;100542.53;;;8.56;68.51
5651;BME280;40241;52.684;9.758;2023-01-30T05:48:44;100527.56;;;8.57;68.70
5651;BME280;40241;52.684;9.758;2023-01-30T05:51:21;100527.66;;;8.62;68.69
5651;BME280;40241;52.684;9.758;2023-01-30T05:53:47;100527.91;;;8.64;68.47
5651;BME280;40241;52.684;9.758;2023-01-30T05:56:12;100549.84;;;8.64;68.47
5651;BME280;40241;52.684;9.758;2023-01-30T05:58:38;100550.41;;;8.68;68.74
5651;BME280;40241;52.684;9.758;2023-01-30T06:01:06;100542.72;;;8.72;68.51
5651;BME280;40241;52.684;9.758;2023-01-30T06:03:34;100568.66;;;8.71;68.31
5651;BME280;40241;52.684;9.758;2023-01-30T06:06:03;100570.91;;;8.73;68.51
5651;BME280;40241;52.684;9.758;2023-01-30T06:08:29;100553.69;;;8.72;68.40
5651;BME280;40241;52.684;9.758;2023-01-30T06:10:59;100579.41;;;8.75;68.54
5651;BME280;40241;52.684;9.758;2023-01-30T06:13:25;100546.97;;;8.73;68.53
5651;BME280;40241;52.684;9.758;2023-01-30T06:15:51;100550.19;;;8.72;68.74
5651;BME280;40241;52.684;9.758;2023-01-30T06:18:17;100554.94;;;8.71;68.83
5651;BME280;40241;52.684;9.758;2023-01-30T06:20:46;100563.16;;;8.71;68.62
5651;BME280;40241;52.684;9.758;2023-01-30T06:23:12;100540.66;;;8.67;68.80
5651;BME280;40241;52.684;9.758;2023-01-30T06:25:38;100558.09;;;8.64;68.94
5651;BME280;40241;52.684;9.758;2023-01-30T06:28:06;100555.25;;;8.59;68.85
5651;BME280;40241;52.684;9.758;2023-01-30T06:30:32;100569.69;;;8.54;69.03
5651;BME280;40241;52.684;9.758;2023-01-30T06:32:57;100575.34;;;8.50;68.99
5651;BME280;40241;52.684;9.758;2023-01-30T06:35:22;100590.03;;;8.47;69.32
5651;BME280;40241;52.684;9.758;2023-01-30T06:37:47;100603.84;;;8.38;69.16
5651;BME280;40241;52.684;9.758;2023-01-30T06:40:13;100600.72;;;8.45;69.17
5651;BME280;40241;52.684;9.758;2023-01-30T06:42:46;100603.75;;;8.47;69.15
5651;BME280;40241;52.684;9.758;2023-01-30T06:45:16;100592.56;;;8.51;69.10
5651;BME280;40241;52.684;9.758;2023-01-30T06:47:53;100590.09;;;8.53;69.16
5651;BME280;40241;52.684;9.758;2023-01-30T06:50:21;100601.53;;;8.51;68.80
5651;BME280;40241;52.684;9.758;2023-01-30T06:52:48;100600.50;;;8.49;69.04
5651;BME280;40241;52.684;9.758;2023-01-30T06:55:17;100593.31;;;8.51;68.84
5651;BME280;40241;52.684;9.758;2023-01-30T06:57:43;100604.00;;;8.49;68.66
5651;BME280;40241;52.684;9.758;2023-01-30T07:00:11;100619.44;;;8.47;68.56
5651;BME280;40241;52.684;9.758;2023-01-30T07:02:37;100620.19;;;8.47;68.88
5651;BME280;40241;52.684;9.758;2023-01-30T07:05:04;100609.78;;;8.51;68.53
5651;BME280;40241;52.684;9.758;2023-01-30T07:07:30;100610.72;;;8.48;68.69
5651;BME280;40241;52.684;9.758;2023-01-30T07:09:56;100614.22;;;8.49;68.50
5651;BME280;40241;52.684;9.758;2023-01-30T07:12:22;100608.25;;;8.50;68.66
5651;BME280;40241;52.684;9.758;2023-01-30T07:14:49;100615.25;;;8.51;68.29
5651;BME280;40241;52.684;9.758;2023-01-30T07:17:14;100607.22;;;8.48;68.45
5651;BME280;40241;52.684;9.758;2023-01-30T07:19:40;100601.53;;;8.51;68.50
5651;BME280;40241;52.684;9.758;2023-01-30T07:22:06;100610.22;;;8.50;68.34
5651;BME280;40241;52.684;9.758;2023-01-30T07:24:31;100611.75;;;8.51;68.34
5651;BME280;40241;52.684;9.758;2023-01-30T07:26:57;100608.25;;;8.50;68.32
5651;BME280;40241;52.684;9.758;2023-01-30T07:29:22;100613.72;;;8.50;68.42
5651;BME280;40241;52.684;9.758;2023-01-30T07:31:47;100602.97;;;8.47;68.32
5651;BME280;40241;52.684;9.758;2023-01-30T07:34:13;100610.16;;;8.44;68.07
5651;BME280;40241;52.684;9.758;2023-01-30T07:36:38;100642.50;;;8.40;67.95
5651;BME280;40241;52.684;9.758;2023-01-30T07:39:04;100609.25;;;8.32;67.91
5651;BME280;40241;52.684;9.758;2023-01-30T07:41:29;100605.69;;;8.26;68.06
5651;BME280;40241;52.684;9.758;2023-01-30T07:43:55;100616.06;;;8.22;68.20
5651;BME280;40241;52.684;9.758;2023-01-30T07:46:20;100615.03;;;8.20;67.87
5651;BME280;40241;52.684;9.758;2023-01-30T07:48:46;100620.50;;;8.20;68.13
5651;BME280;40241;52.684;9.758;2023-01-30T07:51:11;100628.19;;;8.16;67.79
5651;BME280;40241;52.684;9.758;2023-01-30T07:53:36;100629.88;;;8.13;67.95
5651;BME280;40241;52.684;9.758;2023-01-30T07:56:09;100622.91;;;8.12;67.82
5651;BME280;40241;52.684;9.758;2023-01-30T07:58:35;100633.88;;;8.12;68.08
5651;BME280;40241;52.684;9.758;2023-01-30T08:01:01;100640.34;;;8.15;67.79
5651;BME280;40241;52.684;9.758;2023-01-30T08:03:26;100641.31;;;8.12;68.03
5651;BME280;40241;52.684;9.758;2023-01-30T08:05:52;100665.22;;;8.11;67.86
5651;BME280;40241;52.684;9.758;2023-01-30T08:08:18;100663.53;;;8.14;67.79
5651;BME280;40241;52.684;9.758;2023-01-30T08:10:44;100663.53;;;8.14;67.71
5651;BME280;40241;52.684;9.758;2023-01-30T08:13:10;100646.25;;;8.08;67.95
5651;BME280;40241;52.684;9.758;2023-01-30T08:15:35;100653.78;;;8.13;67.71
5651;BME280;40241;52.684;9.758;2023-01-30T08:18:00;100663.53;;;8.14;68.13
5651;BME280;40241;52.684;9.758;2023-01-30T08:20:26;100665.28;;;8.17;68.12
5651;BME280;40241;52.684;9.758;2023-01-30T08:22:52;100671.06;;;8.19;67.66
5651;BME280;40241;52.684;9.758;2023-01-30T08:25:18;100667.84;;;8.20;67.73
5651;BME280;40241;52.684;9.758;2023-01-30T08:27:43;100661.63;;;8.20;68.01
5651;BME280;40241;52.684;9.758;2023-01-30T08:30:09;100663.50;;;8.28;67.98
5651;BME280;40241;52.684;9.758;2023-01-30T08:32:35;100665.59;;;8.34;67.70
5651;BME280;40241;52.684;9.758;2023-01-30T08:35:00;100642.50;;;8.40;67.83
5651;BME280;40241;52.684;9.758;2023-01-30T08:37:26;100639.09;;;8.45;67.44
5651;BME280;40241;52.684;9.758;2023-01-30T08:39:51;100639.84;;;8.46;67.80
5651;BME280;40241;52.684;9.758;2023-01-30T08:42:16;100646.34;;;8.48;67.41
5651;BME280;40241;52.684;9.758;2023-01-30T08:44:42;100643.63;;;8.48;67.52
5651;BME280;40241;52.684;9.758;2023-01-30T08:47:07;100642.66;;;8.51;67.54
5651;BME280;40241;52.684;9.758;2023-01-30T08:49:32;100646.72;;;8.56;67.38
5651;BME280;40241;52.684;9.758;2023-01-30T08:51:58;100634.78;;;8.59;67.29
5651;BME280;40241;52.684;9.758;2023-01-30T08:54:23;100653.78;;;8.62;67.33
5651;BME280;40241;52.684;9.758;2023-01-30T08:56:48;100649.13;;;8.68;67.09
5651;BME280;40241;52.684;9.758;2023-01-30T08:59:15;100640.91;;;8.68;66.87
5651;BME280;40241;52.684;9.758;2023-01-30T09:01:41;100643.44;;;8.72;66.92
5651;BME280;40241;52.684;9.758;2023-01-30T09:04:06;100621.47;;;8.72;66.84
5651;BME280;40241;52.684;9.758;2023-01-30T09:06:31;100626.78;;;8.75;66.80
5651;BME280;40241;52.684;9.758;2023-01-30T09:08:58;100629.31;;;8.79;66.91
5651;BME280;40241;52.684;9.758;2023-01-30T09:11:24;100624.84;;;8.81;66.68
5651;BME280;40241;52.684;9.758;2023-01-30T09:13:49;100629.41;;;8.84;66.68
5651;BME280;40241;52.684;9.758;2023-01-30T09:16:14;100652.34;;;8.87;66.79
5651;BME280;40241;52.684;9.758;2023-01-30T09:18:41;100657.91;;;8.92;66.86
5651;BME280;40241;52.684;9.758;2023-01-30T09:21:07;100645.38;;;9.06;66.57
5651;BME280;40241;52.684;9.758;2023-01-30T09:23:33;100639.91;;;9.12;66.66
5651;BME280;40241;52.684;9.758;2023-01-30T09:25:59;100649.72;;;9.18;66.66
5651;BME280;40241;52.684;9.758;2023-01-30T09:28:25;100644.03;;;9.22;66.32
5651;BME280;40241;52.684;9.758;2023-01-30T09:30:50;100651.25;;;9.19;65.94
5651;BME280;40241;52.684;9.758;2023-01-30T09:33:15;100657.38;;;9.09;66.00
5651;BME280;40241;52.684;9.758;2023-01-30T09:35:48;100662.00;;;9.02;66.33
5651;BME280;40241;52.684;9.758;2023-01-30T09:38:14;100639.78;;;9.00;66.43
5651;BME280;40241;52.684;9.758;2023-01-30T09:48:53;100645.00;;;9.19;66.39
5651;BME280;40241;52.684;9.758;2023-01-30T09:52:15;100637.84;;;9.27;66.53
5651;BME280;40241;52.684;9.758;2023-01-30T09:54:42;100627.25;;;9.40;66.28
5651;BME280;40241;52.684;9.758;2023-01-30T09:57:15;100635.84;;;9.53;66.52
5651;BME280;40241;52.684;9.758;2023-01-30T10:30:36;100668.13;;;9.12;66.17
5651;BME280;40241;52.684;9.758;2023-01-30T10:33:03;100648.56;;;9.04;66.09
5651;BME280;40241;52.684;9.758;2023-01-30T10:35:33;100644.88;;;8.87;66.29
5651;BME280;40241;52.684;9.758;2023-01-30T10:40:48;100667.53;;;8.48;66.03
5651;BME280;40241;52.684;9.758;2023-01-30T10:43:25;100653.66;;;8.22;66.44
5651;BME280;40241;52.684;9.758;2023-01-30T10:51:45;100625.41;;;7.81;66.49
5651;BME280;40241;52.684;9.758;2023-01-30T10:54:27;100642.38;;;7.85;67.46
5651;BME280;40241;52.684;9.758;2023-01-30T10:59:58;100622.91;;;7.98;67.06
5651;BME280;40241;52.684;9.758;2023-01-30T11:05:39;100616.28;;;8.04;67.29
5651;BME280;40241;52.684;9.758;2023-01-30T11:10:46;100625.41;;;8.30;67.10
5651;BME280;40241;52.684;9.758;2023-01-30T11:13:20;100606.22;;;8.45;67.42
5651;BME280;40241;52.684;9.758;2023-01-30T11:15:48;100607.69;;;8.46;66.95
5651;BME280;40241;52.684;9.758;2023-01-30T11:18:16;100606.22;;;8.45;66.87
5651;BME280;40241;52.684;9.758;2023-01-30T11:20:44;100629.06;;;8.42;66.89
5651;BME280;40241;52.684;9.758;2023-01-30T11:23:35;100612.63;;;8.42;67.29
5651;BME280;40241;52.684;9.758;2023-01-30T11:26:03;100624.81;;;8.41;67.03
5651;BME280;40241;52.684;9.758;2023-01-30T11:28:40;100579.19;;;8.38;67.08
5651;BME280;40241;52.684;9.758;2023-01-30T11:31:16;100597.25;;;8.30;67.21
5651;BME280;40241;52.684;9.758;2023-01-30T11:33:41;100588.47;;;8.26;67.21
5651;BME280;40241;52.684;9.758;2023-01-30T11:36:24;100584.88;;;8.20;67.13
5651;BME280;40241;52.684;9.758;2023-01-30T11:39:17;100579.63;;;8.16;67.00
5651;BME280;40241;52.684;9.758;2023-01-30T11:44:31;100614.19;;;8.14;67.30
5651;BME280;40241;52.684;9.758;2023-01-30T11:47:06;100628.38;;;8.12;67.42
5651;BME280;40241;52.684;9.758;2023-01-30T11:49:38;100623.72;;;8.18;67.38
5651;BME280;40241;52.684;9.758;2023-01-30T11:52:06;100603.78;;;8.18;67.29
5651;BME280;40241;52.684;9.758;2023-01-30T11:54:38;100605.50;;;8.15;67.30
5651;BME280;40241;52.684;9.758;2023-01-30T11:57:10;100614.97;;;8.14;67.25
5651;BME280;40241;52.684;9.758;2023-01-30T11:59:56;100628.19;;;8.16;67.62
5651;BME280;40241;52.684;9.758;2023-01-30T12:02:31;100601.72;;;8.27;67.90
5651;BME280;40241;52.684;9.758;2023-01-30T12:07:46;100582.38;;;8.37;67.67
5651;BME280;40241;52.684;9.758;2023-01-30T12:12:50;100589.97;;;8.62;67.63
5651;BME280;40241;52.684;9.758;2023-01-30T12:15:29;100599.75;;;8.68;67.61
5651;BME280;40241;52.684;9.758;2023-01-30T12:18:22;100601.88;;;8.79;67.98
5651;BME280;40241;52.684;9.758;2023-01-30T12:20:58;100593.94;;;9.06;67.86
5651;BME280;40241;52.684;9.758;2023-01-30T12:26:34;100578.34;;;9.44;67.30
5651;BME280;40241;52.684;9.758;2023-01-30T12:31:44;100569.34;;;9.69;67.49
5651;BME280;40241;52.684;9.758;2023-01-30T12:34:10;100582.97;;;9.89;67.34
5651;BME280;40241;52.684;9.758;2023-01-30T12:40:19;100566.75;;;9.91;66.65
5651;BME280;40241;52.684;9.758;2023-01-30T12:45:26;100569.69;;;9.82;66.83
5651;BME280;40241;52.684;9.758;2023-01-30T12:54:24;100569.75;;;9.56;66.75
5651;BME280;40241;52.684;9.758;2023-01-30T13:04:31;100592.97;;;9.30;67.07
5651;BME280;40241;52.684;9.758;2023-01-30T13:15:44;100594.72;;;9.58;67.06
5651;BME280;40241;52.684;9.758;2023-01-30T13:18:13;100590.25;;;9.61;67.17
5651;BME280;40241;52.684;9.758;2023-01-30T13:23:24;100596.41;;;9.81;67.08
5651;BME280;40241;52.684;9.758;2023-01-30T13:25:57;100595.66;;;9.81;66.94
5651;BME280;40241;52.684;9.758;2023-01-30T13:28:28;100608.41;;;9.84;67.07
5651;BME280;40241;52.684;9.758;2023-01-30T13:30:56;100605.69;;;10.15;67.56
5651;BME280;40241;52.684;9.758;2023-01-30T13:33:29;100607.09;;;10.47;67.13
5651;BME280;40241;52.684;9.758;2023-01-30T13:36:10;100606.91;;;10.62;66.18
5651;BME280;40241;52.684;9.758;2023-01-30T13:38:46;100639.59;;;10.43;65.71
5651;BME280;40241;52.684;9.758;2023-01-30T13:41:14;100644.19;;;10.21;65.97
5651;BME280;40241;52.684;9.758;2023-01-30T13:43:46;100642.78;;;10.05;66.04
5651;BME280;40241;52.684;9.758;2023-01-30T13:46:20;100667.41;;;9.89;66.13
5651;BME280;40241;52.684;9.758;2023-01-30T13:51:51;100682.66;;;9.64;66.88
5651;BME280;40241;52.684;9.758;2023-01-30T13:55:09;100688.69;;;9.68;67.33
5651;BME280;40241;52.684;9.758;2023-01-30T13:57:18;100704.19;;;9.97;67.53
5651;BME280;40241;52.684;9.758;2023-01-30T13:59:55;100709.41;;;10.20;67.20
5651;BME280;40241;52.684;9.758;2023-01-30T14:02:29;100707.78;;;10.34;66.80
5651;BME280;40241;52.684;9.758;2023-01-30T14:04:55;100711.78;;;10.33;66.56
5651;BME280;40241;52.684;9.758;2023-01-30T14:07:32;100705.72;;;10.29;66.17
5651;BME280;40241;52.684;9.758;2023-01-30T14:10:25;100702.41;;;10.19;66.14
5651;BME280;40241;52.684;9.758;2023-01-30T14:12:52;100712.03;;;10.09;66.42
5651;BME280;40241;52.684;9.758;2023-01-30T14:15:26;100709.94;;;9.99;66.38
5651;BME280;40241;52.684;9.758;2023-01-30T14:18:05;100729.34;;;9.90;66.47
5651;BME280;40241;52.684;9.758;2023-01-30T14:20:36;100742.28;;;9.83;66.69
5651;BME280;40241;52.684;9.758;2023-01-30T14:25:50;100762.16;;;9.73;66.73
5651;BME280;40241;52.684;9.758;2023-01-30T14:31:00;100775.78;;;9.62;66.83
5651;BME280;40241;52.684;9.758;2023-01-30T14:38:34;100768.16;;;9.51;66.86
5651;BME280;40241;52.684;9.758;2023-01-30T14:43:26;100776.53;;;9.42;67.00
5651;BME280;40241;52.684;9.758;2023-01-30T14:48:55;100770.38;;;9.47;67.04
5651;BME280;40241;52.684;9.758;2023-01-30T14:51:34;100783.34;;;9.47;66.84
5651;BME280;40241;52.684;9.758;2023-01-30T14:56:45;100784.56;;;9.46;67.08
5651;BME280;40241;52.684;9.758;2023-01-30T15:07:12;100830.09;;;9.32;66.60
5651;BME280;40241;52.684;9.758;2023-01-30T15:09:41;100851.97;;;9.27;66.88
5651;BME280;40241;52.684;9.758;2023-01-30T15:17:40;100891.31;;;9.03;67.37
5651;BME280;40241;52.684;9.758;2023-01-30T15:20:45;100887.31;;;9.04;67.51
5651;BME280;40241;52.684;9.758;2023-01-30T15:26:14;100894.34;;;8.91;67.57
5651;BME280;40241;52.684;9.758;2023-01-30T15:31:25;100913.66;;;8.82;67.39
5651;BME280;40241;52.684;9.758;2023-01-30T15:33:52;100912.13;;;8.81;67.42
5651;BME280;40241;52.684;9.758;2023-01-30T15:36:26;100914.38;;;8.82;67.45
5651;BME280;40241;52.684;9.758;2023-01-30T15:39:00;100912.31;;;8.77;67.69
5651;BME280;40241;52.684;9.758;2023-01-30T15:41:28;100906.84;;;8.77;67.65
5651;BME280;40241;52.684;9.758;2023-01-30T15:52:36;100935.28;;;8.65;67.87
5651;BME280;40241;52.684;9.758;2023-01-30T15:55:04;100934.06;;;8.66;67.82
5651;BME280;40241;52.684;9.758;2023-01-30T15:57:34;100948.91;;;8.60;67.57
5651;BME280;40241;52.684;9.758;2023-01-30T16:00:01;100957.31;;;8.56;67.71
5651;BME280;40241;52.684;9.758;2023-01-30T16:02:34;100963.38;;;8.60;67.78
5651;BME280;40241;52.684;9.758;2023-01-30T16:07:38;100983.59;;;8.63;67.72
5651;BME280;40241;52.684;9.758;2023-01-30T16:10:11;101009.34;;;8.65;67.93
5651;BME280;40241;52.684;9.758;2023-01-30T16:12:37;101002.50;;;8.61;67.89
5651;BME280;40241;52.684;9.758;2023-01-30T16:15:11;101002.50;;;8.61;67.71
5651;BME280;40241;52.684;9.758;2023-01-30T16:17:37;101019.63;;;8.56;67.78
5651;BME280;40241;52.684;9.758;2023-01-30T16:20:03;101019.78;;;8.52;67.54
5651;BME280;40241;52.684;9.758;2023-01-30T16:22:32;101029.25;;;8.51;67.74
5651;BME280;40241;52.684;9.758;2023-01-30T16:24:59;101034.63;;;8.46;67.52